Time;durP1;ratioP1;P1;durP2;ratioP2;P2;SDS_P1;SDS_P2;PMS_P1;PMS_P2;Temp;Humidity;BMP_temperature;BMP_pressure;BME280_temperature;BME280_humidity;BME280_pressure;Samples;Min_cycle;Max_cycle;Signal;HPM_P1;HPM_P2
2022/11/30 00:01:12;;;;;;;32.27;16.00;;;;;;;-0.30;95.83;101040.94;4178626;28;22127;-65
2022/11/30 00:03:38;;;;;;;34.87;15.00;;;;;;;-0.24;95.38;101045.91;4201918;28;26580;-66
2022/11/30 00:06:06;;;;;;;35.40;15.13;;;;;;;-0.30;95.74;101038.31;4199082;28;23607;-65
2022/11/30 00:08:34;;;;;;;35.07;16.17;;;;;;;-0.40;95.92;101047.44;4199735;28;22677;-66
2022/11/30 00:11:16;;;;;;;39.23;16.30;;;;;;;-0.39;96.34;101040.47;4196055;28;22967;-67
2022/11/30 00:13:44;;;;;;;33.83;17.10;;;;;;;-0.45;96.44;101034.53;4193779;28;20642;-66
2022/11/30 00:16:10;;;;;;;35.00;16.43;;;;;;;-0.43;97.13;101043.16;4202160;28;20273;-67
2022/11/30 00:18:37;;;;;;;34.10;15.70;;;;;;;-0.39;96.26;101033.47;4200501;28;20236;-67
2022/11/30 00:21:07;;;;;;;33.80;15.87;;;;;;;-0.38;96.40;101039.53;4193380;28;20415;-68
2022/11/30 00:23:36;;;;;;;39.73;16.90;;;;;;;-0.30;96.34;101040.94;4204198;28;20246;-63
2022/11/30 00:26:08;;;;;;;36.67;16.70;;;;;;;-0.30;96.37;101037.47;4194889;28;20272;-64
2022/11/30 00:28:35;;;;;;;36.33;17.27;;;;;;;-0.32;96.46;101041.91;4200444;28;20244;-66
2022/11/30 00:31:04;;;;;;;33.23;15.40;;;;;;;-0.41;96.74;101042.28;4194577;28;20296;-63
2022/11/30 00:33:35;;;;;;;34.73;15.73;;;;;;;-0.36;96.72;101050.78;4197271;28;20241;-66
2022/11/30 00:36:04;;;;;;;40.27;17.30;;;;;;;-0.46;96.75;101040.69;4194316;28;20351;-63
2022/11/30 00:38:31;;;;;;;33.67;16.50;;;;;;;-0.45;97.32;101045.00;4186291;28;20258;-65
2022/11/30 00:40:58;;;;;;;36.13;18.10;;;;;;;-0.41;97.34;101048.34;4200723;28;20251;-64
2022/11/30 00:43:24;;;;;;;42.40;18.03;;;;;;;-0.44;97.62;101045.88;4192486;28;20228;-66
2022/11/30 00:45:51;;;;;;;39.93;17.53;;;;;;;-0.33;97.32;101055.88;4200075;28;21655;-66
2022/11/30 00:48:17;;;;;;;37.67;17.80;;;;;;;-0.40;97.05;101051.81;4200934;28;21739;-63
2022/11/30 00:50:44;;;;;;;43.87;18.20;;;;;;;-0.35;97.72;101055.97;4198485;28;20410;-65
2022/11/30 00:53:10;;;;;;;39.47;17.83;;;;;;;-0.33;97.45;101055.88;4198741;28;20263;-64
2022/11/30 00:55:37;;;;;;;36.50;17.50;;;;;;;-0.33;97.49;101056.75;4206951;28;20395;-65
2022/11/30 00:58:05;;;;;;;35.73;17.80;;;;;;;-0.23;97.16;101059.88;4201567;28;20237;-65
2022/11/30 01:00:32;;;;;;;40.30;17.87;;;;;;;-0.22;97.03;101059.78;4198837;28;20572;-64
2022/11/30 01:02:59;;;;;;;43.20;17.37;;;;;;;-0.18;96.91;101050.06;4190694;28;20242;-65
2022/11/30 01:05:25;;;;;;;41.90;18.53;;;;;;;-0.23;97.20;101057.25;4198732;28;20309;-66
2022/11/30 01:07:52;;;;;;;41.07;19.30;;;;;;;-0.24;96.85;101058.13;4201157;28;20240;-65
2022/11/30 01:10:18;;;;;;;45.47;18.87;;;;;;;-0.31;97.39;101061.91;4194316;28;20421;-65
2022/11/30 01:12:45;;;;;;;33.67;16.67;;;;;;;-0.32;97.43;101068.06;4195103;28;20229;-65
2022/11/30 01:15:11;;;;;;;39.17;18.33;;;;;;;-0.30;97.45;101066.25;4197940;28;20304;-66
2022/11/30 01:17:38;;;;;;;38.17;16.73;;;;;;;-0.30;97.43;101066.25;4203812;28;20247;-67
2022/11/30 01:20:06;;;;;;;36.07;15.73;;;;;;;-0.32;96.93;101062.84;4208278;28;22322;-66
2022/11/30 01:22:34;;;;;;;35.93;16.80;;;;;;;-0.26;96.91;101067.81;4196576;28;20308;-64
2022/11/30 01:25:01;;;;;;;33.43;16.47;;;;;;;-0.29;97.15;101067.94;4192569;28;20236;-65
2022/11/30 01:27:28;;;;;;;37.77;18.20;;;;;;;-0.13;97.07;101069.03;4201736;28;20496;-63
2022/11/30 01:29:54;;;;;;;33.83;16.13;;;;;;;-0.26;96.62;101067.81;4204876;28;20239;-63
2022/11/30 01:32:21;;;;;;;37.73;17.77;;;;;;;-0.30;97.22;101071.47;4205167;28;20236;-68
2022/11/30 01:34:47;;;;;;;37.13;16.70;;;;;;;-0.18;97.24;101071.00;4207696;28;20292;-63
2022/11/30 01:37:14;;;;;;;41.10;17.53;;;;;;;-0.13;97.27;101074.25;4206303;28;20241;-64
2022/11/30 01:39:41;;;;;;;41.77;17.97;;;;;;;-0.07;96.96;101071.41;4203837;28;20229;-63
2022/11/30 01:42:13;;;;;;;39.10;17.43;;;;;;;-0.16;96.68;101068.31;4196195;28;20216;-66
2022/11/30 01:44:50;;;;;;;34.57;16.40;;;;;;;-0.18;96.62;101065.75;4193732;28;20355;-65
2022/11/30 01:47:23;;;;;;;38.43;16.43;;;;;;;-0.28;97.07;101064.41;4200956;28;21127;-63
2022/11/30 01:49:54;;;;;;;34.73;16.20;;;;;;;-0.35;97.54;101073.41;4188494;28;20263;-67
2022/11/30 01:52:49;;;;;;;36.57;15.97;;;;;;;-0.31;97.16;101075.00;4197736;28;20238;-69
2022/11/30 01:55:22;;;;;;;34.97;16.07;;;;;;;-0.24;96.43;101077.28;4202762;28;20242;-63
2022/11/30 01:58:01;;;;;;;35.07;15.60;;;;;;;-0.32;96.82;101073.28;4197063;28;20241;-64
2022/11/30 02:00:27;;;;;;;38.87;16.80;;;;;;;-0.35;97.27;101068.16;4206475;28;21254;-64
2022/11/30 02:02:59;;;;;;;38.03;17.50;;;;;;;-0.34;97.21;101070.72;4197160;28;20344;-64
2022/11/30 02:05:26;;;;;;;38.33;16.47;;;;;;;-0.33;97.06;101077.69;4184325;28;21201;-65
2022/11/30 02:07:53;;;;;;;36.93;17.00;;;;;;;-0.32;97.05;101076.75;4207523;28;20228;-65
2022/11/30 02:10:24;;;;;;;36.03;16.00;;;;;;;-0.27;97.04;101074.81;4200321;28;20239;-66
2022/11/30 02:13:22;;;;;;;33.77;15.87;;;;;;;-0.29;96.96;101079.25;4193874;28;20247;-63
2022/11/30 02:15:54;;;;;;;36.80;15.47;;;;;;;-0.30;96.66;101074.09;4218081;28;20240;-64
2022/11/30 02:18:26;;;;;;;36.47;15.83;;;;;;;-0.33;96.58;101071.56;4200173;28;20232;-65
2022/11/30 02:21:05;;;;;;;39.83;17.13;;;;;;;-0.26;96.85;101071.31;4209346;28;20235;-64
2022/11/30 02:24:00;;;;;;;41.07;17.77;;;;;;;-0.14;96.12;101072.56;4204133;28;21626;-65
2022/11/30 02:27:04;;;;;;;40.10;17.03;;;;;;;-0.15;96.34;101076.09;4216604;28;20223;-63
2022/11/30 02:29:36;;;;;;;32.27;15.87;;;;;;;-0.31;96.25;101073.22;4212618;28;21210;-66
2022/11/30 02:32:14;;;;;;;33.53;15.57;;;;;;;-0.29;96.82;101075.78;4201982;28;21646;-63
2022/11/30 02:34:42;;;;;;;34.93;16.83;;;;;;;-0.32;96.78;101075.91;4202130;28;20679;-66
2022/11/30 02:37:11;;;;;;;37.13;16.73;;;;;;;-0.28;96.73;101078.34;4202382;28;20750;-64
2022/11/30 02:39:37;;;;;;;35.20;16.73;;;;;;;-0.29;96.78;101083.63;4200733;28;20237;-67
2022/11/30 02:42:10;;;;;;;34.53;17.07;;;;;;;-0.27;97.04;101084.44;4205032;28;21741;-66
2022/11/30 02:44:37;;;;;;;38.50;16.50;;;;;;;-0.28;97.39;101085.31;4202135;28;20413;-65
2022/11/30 02:47:25;;;;;;;37.13;16.77;;;;;;;-0.28;97.21;101090.53;4205014;28;20238;-63
2022/11/30 02:50:05;;;;;;;37.87;17.20;;;;;;;-0.19;96.86;101082.34;4208704;28;22239;-65
2022/11/30 02:52:32;;;;;;;36.83;16.67;;;;;;;-0.20;97.53;101093.72;4207169;28;21606;-66
2022/11/30 02:55:05;;;;;;;41.70;17.97;;;;;;;-0.22;97.37;101088.56;4202116;28;20239;-65
2022/11/30 02:57:32;;;;;;;39.37;17.63;;;;;;;-0.15;97.63;101081.31;4202319;28;21388;-67
2022/11/30 03:00:01;;;;;;;36.00;17.20;;;;;;;-0.04;96.72;101089.59;4206606;28;22288;-67
2022/11/30 03:02:27;;;;;;;37.87;17.33;;;;;;;-0.14;96.95;101093.50;4199245;28;20234;-67
2022/11/30 03:04:54;;;;;;;40.30;18.03;;;;;;;-0.21;96.83;101086.81;4205112;28;20743;-65
2022/11/30 03:07:21;;;;;;;38.00;16.43;;;;;;;-0.19;97.76;101095.41;4200585;28;20237;-64
2022/11/30 03:09:47;;;;;;;33.87;16.07;;;;;;;-0.13;96.46;101099.59;4207307;28;20228;-65
2022/11/30 03:12:14;;;;;;;36.87;16.53;;;;;;;-0.20;96.64;101098.97;4193876;28;20248;-67
2022/11/30 03:14:40;;;;;;;34.33;16.63;;;;;;;-0.23;96.91;101099.09;4207506;28;22157;-65
2022/11/30 03:17:07;;;;;;;39.73;17.87;;;;;;;0.01;96.61;101092.03;4201031;28;20232;-66
2022/11/30 03:19:34;;;;;;;37.80;17.13;;;;;;;-0.14;96.09;101093.50;4207080;28;20233;-65
2022/11/30 03:22:00;;;;;;;37.30;16.57;;;;;;;-0.14;95.87;101095.25;4198256;28;20238;-64
2022/11/30 03:24:27;;;;;;;39.73;18.00;;;;;;;-0.10;95.01;101094.22;4203064;28;20300;-67
2022/11/30 03:26:53;;;;;;;38.20;17.13;;;;;;;-0.18;96.06;101091.91;4200529;28;21076;-63
2022/11/30 03:29:20;;;;;;;37.20;17.40;;;;;;;-0.19;95.91;101100.66;4208865;28;20333;-64
2022/11/30 03:31:47;;;;;;;39.10;17.60;;;;;;;-0.21;95.87;101097.28;4202486;28;20406;-64
2022/11/30 03:34:13;;;;;;;38.57;16.97;;;;;;;-0.04;95.66;101096.59;4200377;28;20237;-64
2022/11/30 03:36:40;;;;;;;38.83;17.70;;;;;;;-0.15;95.78;101104.88;4204542;28;20243;-62
2022/11/30 03:39:08;;;;;;;35.37;16.60;;;;;;;-0.25;95.40;101106.16;4204277;28;20808;-64
2022/11/30 03:41:34;;;;;;;35.77;16.17;;;;;;;-0.16;95.66;101111.03;4199557;28;20241;-63
2022/11/30 03:44:01;;;;;;;35.63;16.20;;;;;;;-0.27;96.18;101108.81;4195232;28;20652;-63
2022/11/30 03:46:28;;;;;;;40.63;17.57;;;;;;;-0.32;96.56;101109.91;4200799;28;20746;-64
2022/11/30 03:48:54;;;;;;;38.70;17.30;;;;;;;-0.36;96.81;101108.31;4201831;28;20295;-63
2022/11/30 03:51:21;;;;;;;39.97;18.60;;;;;;;-0.34;96.88;101109.09;4204267;28;20354;-65
2022/11/30 03:53:47;;;;;;;35.97;16.73;;;;;;;-0.29;96.48;101115.00;4199771;28;21202;-64
2022/11/30 03:56:14;;;;;;;38.20;18.30;;;;;;;-0.22;96.59;101116.47;4200398;28;20238;-66
2022/11/30 03:58:41;;;;;;;38.80;17.30;;;;;;;-0.10;96.39;101112.53;4207464;28;20252;-68
2022/11/30 04:01:14;;;;;;;42.60;18.00;;;;;;;-0.23;96.13;101117.41;4207945;28;23360;-65
2022/11/30 04:03:41;;;;;;;44.97;20.73;;;;;;;-0.22;96.62;101116.47;4190373;28;20741;-65
2022/11/30 04:06:09;;;;;;;39.60;17.63;;;;;;;-0.17;96.20;101111.06;4197226;28;20232;-63
2022/11/30 04:08:36;;;;;;;41.23;17.77;;;;;;;-0.15;96.68;101123.16;4204390;28;20232;-65
2022/11/30 04:11:03;;;;;;;40.20;17.60;;;;;;;-0.09;96.73;101120.31;4204246;28;20235;-65
2022/11/30 04:13:33;;;;;;;45.90;18.47;;;;;;;-0.06;96.27;101117.59;4208688;28;20279;-67
2022/11/30 04:16:01;;;;;;;36.30;17.03;;;;;;;-0.09;95.55;101128.19;4212593;28;21531;-70
2022/11/30 04:18:29;;;;;;;43.93;18.57;;;;;;;-0.01;95.87;101125.25;4206716;28;20241;-67
2022/11/30 04:20:57;;;;;;;42.63;18.13;;;;;;;-0.07;95.52;101121.13;4210199;28;20781;-66
2022/11/30 04:23:24;;;;;;;39.80;17.63;;;;;;;-0.11;95.52;101116.91;4208340;28;20225;-65
2022/11/30 04:25:51;;;;;;;40.37;18.40;;;;;;;-0.12;95.85;101125.66;4190708;28;20229;-69
2022/11/30 04:28:18;;;;;;;37.03;17.33;;;;;;;-0.10;95.61;101123.84;4212891;28;23015;-64
2022/11/30 04:30:45;;;;;;;40.07;17.80;;;;;;;-0.14;95.24;101122.28;4206536;28;21200;-65
2022/11/30 04:33:13;;;;;;;39.67;17.47;;;;;;;-0.17;95.43;101124.16;4210743;28;20704;-67
2022/11/30 04:35:41;;;;;;;36.30;16.93;;;;;;;0.01;94.64;101130.44;4197472;28;20314;-63
2022/11/30 04:38:08;;;;;;;37.50;17.17;;;;;;;0.05;93.71;101124.16;4211808;28;20236;-64
2022/11/30 04:40:38;;;;;;;37.57;17.70;;;;;;;-0.07;94.58;101130.72;4216463;28;20248;-65
2022/11/30 04:43:05;;;;;;;39.30;16.33;;;;;;;-0.12;94.86;101123.03;4204032;28;20230;-65
2022/11/30 04:45:31;;;;;;;35.50;15.80;;;;;;;-0.11;94.74;101127.38;4212096;28;26367;-64
2022/11/30 04:48:02;;;;;;;35.97;17.23;;;;;;;-0.13;94.96;101125.75;4208504;28;20278;-68
2022/11/30 04:50:28;;;;;;;37.43;17.07;;;;;;;-0.15;94.88;101133.63;4210470;28;20232;-66
2022/11/30 04:52:55;;;;;;;42.57;17.77;;;;;;;-0.09;95.04;101132.56;4199307;28;20401;-67
2022/11/30 04:55:22;;;;;;;41.97;17.03;;;;;;;0.03;94.23;101137.31;4207086;28;20765;-65
2022/11/30 04:57:48;;;;;;;35.63;16.77;;;;;;;-0.06;94.07;101135.91;4207905;28;20243;-65
2022/11/30 05:00:16;;;;;;;36.60;17.17;;;;;;;-0.07;94.17;101141.19;4207387;28;23054;-66
2022/11/30 05:02:42;;;;;;;34.43;15.27;;;;;;;-0.18;94.78;101139.00;4215621;28;20225;-66
2022/11/30 05:05:17;;;;;;;36.10;16.30;;;;;;;-0.10;95.08;101147.38;4204315;28;20300;-66
2022/11/30 05:07:48;;;;;;;38.33;17.07;;;;;;;-0.11;94.67;101150.06;4212064;28;20232;-68
2022/11/30 05:10:15;;;;;;;36.93;16.43;;;;;;;-0.11;94.76;101148.31;4213555;28;23710;-67
2022/11/30 05:12:41;;;;;;;33.77;15.80;;;;;;;0.06;94.79;101152.03;4217009;28;22236;-69
2022/11/30 05:15:08;;;;;;;35.90;16.70;;;;;;;0.01;94.31;101146.97;4213531;28;20255;-70
2022/11/30 05:17:35;;;;;;;40.67;16.60;;;;;;;0.03;94.65;101146.94;4210872;28;20232;-66
2022/11/30 05:20:02;;;;;;;38.53;17.83;;;;;;;-0.03;94.10;101138.38;4209007;28;20319;-65
2022/11/30 05:22:28;;;;;;;41.77;18.17;;;;;;;-0.05;94.30;101140.22;4205185;28;20308;-64
2022/11/30 05:24:55;;;;;;;35.17;16.03;;;;;;;-0.08;94.38;101142.94;4211056;28;20668;-65
2022/11/30 05:27:21;;;;;;;33.00;16.00;;;;;;;-0.08;93.54;101144.72;4214815;28;20251;-64
2022/11/30 05:29:48;;;;;;;31.40;15.87;;;;;;;-0.06;93.75;101142.91;4212391;28;23297;-65
2022/11/30 05:32:14;;;;;;;33.53;14.40;;;;;;;-0.11;93.49;101142.22;4209819;28;21599;-67
2022/11/30 05:34:41;;;;;;;30.07;15.30;;;;;;;-0.13;93.29;101141.44;4197542;28;20226;-66
2022/11/30 05:37:17;;;;;;;30.83;14.53;;;;;;;-0.14;93.73;101151.06;4205186;28;20229;-66
2022/11/30 05:39:44;;;;;;;32.40;14.90;;;;;;;-0.12;93.57;101151.81;4211879;28;20682;-65
2022/11/30 05:42:10;;;;;;;38.43;17.53;;;;;;;0.01;93.66;101153.97;4207081;28;20233;-65
2022/11/30 05:44:37;;;;;;;32.80;15.23;;;;;;;0.01;93.91;101159.22;4214052;28;21577;-65
2022/11/30 05:47:03;;;;;;;33.00;15.87;;;;;;;-0.01;93.41;101159.25;4215076;28;21151;-65
2022/11/30 05:49:30;;;;;;;35.37;15.90;;;;;;;0.03;93.37;101166.09;4215383;28;21975;-65
2022/11/30 05:51:57;;;;;;;30.30;15.07;;;;;;;0.02;93.41;101166.97;4206017;28;20312;-67
2022/11/30 05:54:23;;;;;;;31.57;15.23;;;;;;;-0.02;93.33;101166.25;4202152;28;21325;-66
2022/11/30 05:56:50;;;;;;;27.80;13.93;;;;;;;0.23;92.99;101167.06;4218652;28;20491;-67
2022/11/30 05:59:20;;;;;;;30.10;13.87;;;;;;;0.19;92.99;101163.72;4209000;28;20239;-67
2022/11/30 06:01:47;;;;;;;33.43;14.47;;;;;;;0.09;93.50;101167.59;4213639;28;21171;-63
2022/11/30 06:04:14;;;;;;;35.43;16.00;;;;;;;0.08;94.11;101171.16;4201464;28;20239;-66
2022/11/30 06:06:41;;;;;;;33.83;15.90;;;;;;;0.01;94.44;101170.53;4210243;28;20262;-67
2022/11/30 06:09:07;;;;;;;32.43;16.13;;;;;;;0.03;94.37;101176.56;4203458;28;20387;-66
2022/11/30 06:11:34;;;;;;;30.50;15.03;;;;;;;0.01;93.71;101173.13;4223451;28;22386;-65
2022/11/30 06:14:01;;;;;;;32.67;14.87;;;;;;;-0.03;94.00;101175.00;4209069;28;21882;-67
2022/11/30 06:16:27;;;;;;;30.83;13.43;;;;;;;0.01;93.61;101174.91;4204501;28;21630;-66
2022/11/30 06:18:54;;;;;;;30.83;14.43;;;;;;;-0.06;94.18;101169.91;4217781;28;21257;-64
2022/11/30 06:21:21;;;;;;;28.47;13.37;;;;;;;0.01;93.94;101181.00;4207677;28;20295;-63
2022/11/30 06:23:51;;;;;;;33.43;15.47;;;;;;;0.05;93.71;101173.84;4209217;28;20761;-64
2022/11/30 06:26:18;;;;;;;28.17;14.23;;;;;;;0.10;94.54;101171.94;4196278;28;20236;-67
2022/11/30 06:28:44;;;;;;;33.30;15.10;;;;;;;0.19;93.88;101176.81;4213924;28;20240;-65
2022/11/30 06:31:14;;;;;;;30.47;15.00;;;;;;;0.13;94.58;101177.03;4199873;28;22299;-67
2022/11/30 06:33:42;;;;;;;31.23;14.50;;;;;;;0.09;93.06;101175.44;4208399;28;21691;-65
2022/11/30 06:36:09;;;;;;;29.07;13.70;;;;;;;0.07;93.95;101186.00;4207066;28;20278;-65
2022/11/30 06:38:36;;;;;;;27.27;13.67;;;;;;;0.17;93.53;101182.09;4217059;28;20309;-67
2022/11/30 06:41:05;;;;;;;32.07;14.43;;;;;;;0.06;93.63;101188.66;4214343;28;23519;-64
2022/11/30 06:43:34;;;;;;;30.30;14.03;;;;;;;0.03;94.03;101191.41;4210350;28;20237;-62
2022/11/30 06:46:01;;;;;;;33.70;15.47;;;;;;;-0.02;94.54;101195.03;4228543;28;23778;-65
2022/11/30 06:48:28;;;;;;;35.77;16.10;;;;;;;-0.03;94.99;101193.31;4213022;28;20287;-61
2022/11/30 06:50:54;;;;;;;36.70;15.67;;;;;;;0.01;95.22;101198.47;4206523;28;20232;-64
2022/11/30 06:53:21;;;;;;;34.73;15.50;;;;;;;0.04;95.54;101198.34;4212587;28;21724;-64
2022/11/30 06:55:48;;;;;;;32.70;15.50;;;;;;;0.03;95.25;101194.03;4235244;28;20236;-60
2022/11/30 06:58:14;;;;;;;33.23;14.53;;;;;;;0.01;94.91;101198.47;4222461;28;20351;-63
2022/11/30 07:00:41;;;;;;;34.03;16.47;;;;;;;-0.03;94.83;101198.56;4241524;28;22117;-63
2022/11/30 07:03:10;;;;;;;35.97;16.47;;;;;;;-0.04;95.30;101209.94;4220802;28;23432;-62
2022/11/30 07:05:42;;;;;;;37.07;16.90;;;;;;;0.01;96.00;101201.91;4228260;28;21395;-62
2022/11/30 07:08:10;;;;;;;46.47;17.93;;;;;;;0.03;95.60;101207.94;4228225;28;21645;-63
2022/11/30 07:10:41;;;;;;;38.33;17.53;;;;;;;-0.01;95.59;101212.44;4202089;28;20312;-63
2022/11/30 07:13:18;;;;;;;37.77;16.93;;;;;;;0.04;95.74;101206.19;4218661;28;20487;-64
2022/11/30 07:15:44;;;;;;;40.90;18.63;;;;;;;-0.03;96.33;101211.63;4251296;28;20238;-61
2022/11/30 07:18:11;;;;;;;38.63;17.63;;;;;;;0.15;96.23;101217.09;4216686;28;20298;-64
2022/11/30 07:20:38;;;;;;;38.93;18.73;;;;;;;0.09;95.91;101214.69;4320771;28;20567;-63
2022/11/30 07:26:08;;;;;;;41.40;18.00;;;;;;;0.09;95.93;101210.31;4202634;28;21408;-62
2022/11/30 07:28:39;;;;;;;35.33;16.67;;;;;;;0.16;95.75;101211.81;4220434;28;20262;-62
2022/11/30 07:31:18;;;;;;;36.53;17.57;;;;;;;0.20;95.27;101208.13;4203686;28;20712;-63
2022/11/30 07:33:46;;;;;;;43.93;17.57;;;;;;;0.14;95.28;101213.63;4226015;28;20236;-63
2022/11/30 07:36:13;;;;;;;43.47;17.30;;;;;;;0.19;94.96;101210.84;4205614;28;20241;-66
2022/11/30 07:38:39;;;;;;;35.37;16.60;;;;;;;0.15;95.13;101219.72;4230817;28;20231;-62
2022/11/30 07:41:06;;;;;;;40.10;16.87;;;;;;;0.17;95.42;101225.75;4216589;28;20447;-62
2022/11/30 07:43:34;;;;;;;41.23;17.07;;;;;;;0.36;94.84;101224.09;4211984;28;20303;-63
2022/11/30 07:46:01;;;;;;;40.37;18.13;;;;;;;0.27;95.29;101221.84;4212980;28;20304;-63
2022/11/30 07:48:28;;;;;;;39.20;17.67;;;;;;;0.20;95.54;101217.75;4211116;28;22316;-62
2022/11/30 07:51:02;;;;;;;38.30;17.50;;;;;;;0.17;95.27;101228.38;4219982;28;20554;-62
2022/11/30 07:53:30;;;;;;;40.13;17.90;;;;;;;0.17;95.40;101221.34;4225318;28;20924;-64
2022/11/30 07:56:07;;;;;;;41.23;18.33;;;;;;;0.29;95.53;101221.81;4216405;28;20249;-61
2022/11/30 07:58:34;;;;;;;39.17;18.63;;;;;;;0.22;95.18;101223.78;4213819;28;20359;-62
2022/11/30 08:01:02;;;;;;;41.97;18.53;;;;;;;0.26;95.53;101224.50;4211069;28;20253;-62
2022/11/30 08:03:29;;;;;;;40.47;17.93;;;;;;;0.20;95.80;101220.38;4222527;28;20235;-61
2022/11/30 08:06:06;;;;;;;37.07;17.70;;;;;;;0.12;96.55;101218.06;4204046;28;25693;-65
2022/11/30 08:08:35;;;;;;;35.40;16.70;;;;;;;0.19;96.21;101216.91;4215124;28;20228;-62
2022/11/30 08:11:02;;;;;;;43.20;17.90;;;;;;;0.19;95.52;101221.31;4216022;28;20406;-63
2022/11/30 08:13:29;;;;;;;40.93;17.40;;;;;;;0.21;95.54;101214.22;4197706;28;20425;-65
2022/11/30 08:16:00;;;;;;;41.90;19.13;;;;;;;0.16;96.42;101217.03;4211328;28;20314;-63
2022/11/30 08:18:26;;;;;;;41.23;19.00;;;;;;;0.12;96.74;101214.59;4217696;28;20311;-63
2022/11/30 08:20:57;;;;;;;39.77;18.57;;;;;;;0.08;97.21;101223.47;4209816;28;20247;-62
2022/11/30 08:23:24;;;;;;;39.93;17.83;;;;;;;0.04;96.48;101220.09;4215703;28;20317;-64
2022/11/30 08:25:51;;;;;;;38.80;18.27;;;;;;;0.09;96.51;101220.78;4223418;28;20239;-64
2022/11/30 08:28:17;;;;;;;40.00;18.03;;;;;;;0.04;96.33;101219.25;4209929;28;20240;-63
2022/11/30 08:30:44;;;;;;;38.50;17.47;;;;;;;0.09;96.62;101225.16;4211796;28;20786;-61
2022/11/30 08:33:11;;;;;;;39.87;18.20;;;;;;;0.04;96.76;101222.72;4215287;28;20236;-62
2022/11/30 08:35:37;;;;;;;37.87;17.50;;;;;;;0.11;97.00;101229.44;4218369;28;20298;-62
2022/11/30 08:38:04;;;;;;;38.53;18.33;;;;;;;0.09;97.32;101223.41;4214435;28;20254;-64
2022/11/30 08:40:30;;;;;;;42.30;18.03;;;;;;;0.19;96.80;101221.31;4195967;28;20240;-63
2022/11/30 08:42:57;;;;;;;40.37;18.90;;;;;;;0.19;96.90;101227.38;4217024;28;22030;-63
2022/11/30 08:45:24;;;;;;;42.10;18.83;;;;;;;0.15;96.80;101228.41;4212931;28;21704;-63
2022/11/30 08:47:53;;;;;;;40.60;17.90;;;;;;;0.22;96.43;101231.66;4204281;28;21240;-63
2022/11/30 08:50:19;;;;;;;38.77;17.53;;;;;;;0.34;95.99;101231.16;4220701;28;20410;-62
2022/11/30 08:52:46;;;;;;;45.63;18.63;;;;;;;0.38;95.73;101232.75;4209251;28;20228;-61
2022/11/30 08:55:12;;;;;;;42.97;19.37;;;;;;;0.38;96.23;101235.38;4209460;28;21835;-62
2022/11/30 08:57:39;;;;;;;39.73;18.57;;;;;;;0.43;95.88;101234.34;4218551;28;20248;-61
2022/11/30 09:00:07;;;;;;;45.17;19.17;;;;;;;0.51;96.07;101232.25;4207223;28;24089;-64
2022/11/30 09:02:36;;;;;;;39.30;18.10;;;;;;;0.37;95.71;101225.81;4215203;28;20328;-61
2022/11/30 09:05:03;;;;;;;42.17;18.63;;;;;;;0.30;96.72;101224.34;4205859;28;20236;-63
2022/11/30 09:07:29;;;;;;;41.93;18.20;;;;;;;0.30;96.86;101224.34;4209727;28;21360;-67
2022/11/30 09:09:56;;;;;;;39.63;18.47;;;;;;;0.27;97.05;101234.94;4212616;28;21425;-62
2022/11/30 09:12:22;;;;;;;37.70;18.33;;;;;;;0.33;97.31;101234.72;4204276;28;20246;-62
2022/11/30 09:14:49;;;;;;;41.83;18.17;;;;;;;0.33;96.69;101234.72;4218775;28;20426;-63
2022/11/30 09:17:23;;;;;;;41.33;17.70;;;;;;;0.47;96.86;101231.56;4212210;28;20243;-63
2022/11/30 09:19:50;;;;;;;42.73;18.80;;;;;;;0.53;96.03;101233.06;4202162;28;22974;-62
2022/11/30 09:22:17;;;;;;;41.97;19.17;;;;;;;0.35;95.93;101243.34;4216803;28;20233;-62
2022/11/30 09:24:43;;;;;;;41.23;18.33;;;;;;;0.24;97.04;101235.06;4207721;28;20399;-65
2022/11/30 09:27:11;;;;;;;41.60;19.33;;;;;;;0.11;97.75;101236.44;4209483;28;20259;-64
2022/11/30 09:29:37;;;;;;;43.63;18.97;;;;;;;0.15;98.06;101240.66;4201879;28;20320;-62
2022/11/30 09:32:04;;;;;;;43.80;17.87;;;;;;;0.01;97.78;101241.16;4209543;28;20287;-63
2022/11/30 09:34:31;;;;;;;42.17;18.50;;;;;;;0.01;98.58;101232.47;4209554;28;26151;-62
2022/11/30 09:36:57;;;;;;;41.57;18.43;;;;;;;0.07;98.48;101242.69;4217816;28;20378;-65
2022/11/30 09:39:24;;;;;;;39.13;17.93;;;;;;;0.05;98.30;101231.41;4210883;28;20523;-62
2022/11/30 09:42:05;;;;;;;34.60;16.97;;;;;;;0.20;97.96;101230.84;4214470;28;20643;-64
2022/11/30 09:44:49;;;;;;;35.07;17.23;;;;;;;0.28;97.33;101239.28;4202944;28;20252;-64
2022/11/30 09:50:31;;;;;;;43.67;18.17;;;;;;;0.12;97.97;101236.38;4275530;27;20592;-63
2022/11/30 09:53:05;;;;;;;43.67;19.20;;;;;;;0.26;98.09;101238.47;4269336;28;20766;-65
2022/11/30 09:55:38;;;;;;;38.83;18.13;;;;;;;0.42;97.85;101241.31;4244733;28;20226;-65
2022/11/30 09:58:05;;;;;;;41.70;18.43;;;;;;;0.29;97.18;101240.97;4259290;28;20229;-66
2022/11/30 10:00:35;;;;;;;41.00;17.27;;;;;;;0.27;97.59;101234.09;4253744;28;22196;-66
2022/11/30 10:03:04;;;;;;;41.13;16.80;;;;;;;0.25;97.50;101226.28;4237855;28;20313;-66
2022/11/30 10:05:45;;;;;;;37.40;17.33;;;;;;;0.32;97.13;101234.75;4241602;28;20385;-65
2022/11/30 10:08:35;;;;;;;36.43;16.87;;;;;;;0.19;97.61;101232.63;4261847;28;20297;-68
2022/11/30 10:11:27;;;;;;;37.03;17.80;;;;;;;0.13;97.90;101240.69;4240225;28;20227;-66
2022/11/30 10:14:48;;;;;;;37.73;16.90;;;;;;;0.19;98.56;101237.00;4243013;28;21209;-65
2022/11/30 10:17:36;;;;;;;38.80;16.57;;;;;;;0.03;98.73;101230.66;4193978;28;20242;-63
2022/11/30 10:20:18;;;;;;;40.80;17.00;;;;;;;-0.06;99.14;101234.47;4225680;28;20286;-67
2022/11/30 10:23:01;;;;;;;34.50;16.53;;;;;;;0.05;98.97;101229.69;4236314;28;25295;-67
2022/11/30 10:25:53;;;;;;;35.63;17.30;;;;;;;0.05;99.37;101232.31;4224601;28;20355;-68
2022/11/30 10:28:41;;;;;;;34.87;14.60;;;;;;;0.08;99.30;101233.94;4220115;28;20656;-64
2022/11/30 10:31:14;;;;;;;26.83;12.80;;;;;;;0.15;98.53;101240.66;4235887;28;20721;-66
2022/11/30 10:33:49;;;;;;;28.07;13.70;;;;;;;0.14;98.53;101231.06;4240643;28;20418;-65
2022/11/30 10:36:35;;;;;;;31.07;13.53;;;;;;;0.27;98.07;101227.09;4234590;28;20224;-64
2022/11/30 10:39:08;;;;;;;31.67;14.03;;;;;;;0.25;97.54;101231.53;4254437;28;20238;-65
2022/11/30 10:41:46;;;;;;;28.27;12.37;;;;;;;0.08;98.65;101229.56;4244144;28;22403;-66
2022/11/30 10:44:24;;;;;;;24.70;11.57;;;;;;;0.07;98.77;101222.63;4210743;28;20266;-70
2022/11/30 10:46:58;;;;;;;25.50;11.63;;;;;;;0.07;99.37;101227.88;4222742;28;20647;-65
2022/11/30 10:49:27;;;;;;;30.30;12.77;;;;;;;0.12;99.53;101222.47;4267021;28;20331;-65
2022/11/30 10:51:59;;;;;;;24.77;11.63;;;;;;;0.23;98.96;101217.63;4221272;28;21275;-67
2022/11/30 10:54:29;;;;;;;24.87;10.77;;;;;;;0.32;98.55;101219.91;4220272;28;23671;-69
2022/11/30 10:56:57;;;;;;;23.40;11.07;;;;;;;0.18;99.10;101219.59;4228708;28;20267;-67
2022/11/30 10:59:29;;;;;;;28.40;12.33;;;;;;;0.14;99.55;101223.22;4247869;28;21380;-69
2022/11/30 11:01:56;;;;;;;28.03;13.13;;;;;;;0.24;99.58;101219.34;4212132;28;25086;-66
2022/11/30 11:04:26;;;;;;;30.60;13.27;;;;;;;0.30;100.00;101219.09;4214070;28;21219;-69
2022/11/30 11:06:56;;;;;;;31.30;13.50;;;;;;;0.32;99.85;101225.13;4221307;28;20231;-65
2022/11/30 11:09:26;;;;;;;27.43;12.27;;;;;;;0.43;99.21;101213.41;4236851;28;20654;-66
2022/11/30 11:12:04;;;;;;;27.77;13.27;;;;;;;0.41;98.88;101216.91;4225542;28;21382;-66
2022/11/30 11:14:31;;;;;;;28.77;13.23;;;;;;;0.32;99.85;101217.28;4219459;28;20246;-68
2022/11/30 11:17:22;;;;;;;26.73;12.50;;;;;;;0.34;99.64;101222.47;4213599;28;20231;-68
2022/11/30 11:19:49;;;;;;;34.87;13.70;;;;;;;0.31;99.94;101226.06;4228555;28;20733;-66
2022/11/30 11:22:23;;;;;;;30.43;13.67;;;;;;;0.34;99.80;101225.94;4249261;28;20281;-66
2022/11/30 11:24:53;;;;;;;26.97;11.90;;;;;;;0.43;99.42;101223.88;4254669;28;20364;-67
2022/11/30 11:27:23;;;;;;;29.60;13.80;;;;;;;0.40;99.17;101222.22;4241146;28;21358;-67
2022/11/30 11:30:04;;;;;;;25.20;12.30;;;;;;;0.39;100.00;101223.97;4235608;28;21256;-45